Mount Washington, Pennsylvania
Current Conditions -  °F | °C
As of 11:53 PM on Friday 19 Dec 2014 (Local Time) from KAGC Reporting Station
Overcast Overcast  
Wind Chill: 29°   Ceiling: 2600
Heat Index: 29°   Visibility: 10mi
Dew Point: 17°   Wind: 3mph
Humidity: 61%   Direction: 300°WNW
Pressure: 30.23"   Gusts: NA
Location:  40.4305°N, 80.015°W
Report Text: KAGC 200453Z 30003KT 10SM OVC026 M02/M08 A3023 RMK AO2 SLP255 T10171083 410061028
Loading
Personal Weather Stations






























Interactive Weather Map New forecast layout! Learn more

10-Day Weather Forecast

Advertisements
Track Severe Weather on mobile